Time;durP1;ratioP1;P1;durP2;ratioP2;P2;SDS_P1;SDS_P2;PMS_P1;PMS_P2;Temp;Humidity;BMP_temperature;BMP_pressure;BME280_temperature;BME280_humidity;BME280_pressure;Samples;Min_cycle;Max_cycle;Signal;HPM_P1;HPM_P2
2023/02/16 00:00:20;;;;;;;17.73;14.10;;;9.90;81.70;;;;;;4875332;29;20069;-81
2023/02/16 00:02:46;;;;;;;16.85;12.75;;;9.90;81.80;;;;;;4849673;29;20029;-80
2023/02/16 00:05:23;;;;;;;19.85;15.27;;;9.80;81.70;;;;;;4844172;29;20052;-81
2023/02/16 00:07:50;;;;;;;18.20;14.15;;;9.90;81.80;;;;;;4873252;29;20028;-81
2023/02/16 00:10:16;;;;;;;18.60;14.80;;;9.90;81.70;;;;;;4841479;29;20037;-80
2023/02/16 00:15:26;;;;;;;16.42;14.25;;;9.80;81.70;;;;;;4849357;29;20142;-80
2023/02/16 00:17:54;;;;;;;15.98;13.63;;;9.80;81.70;;;;;;4831438;29;20128;-80
2023/02/16 00:20:20;;;;;;;17.60;13.55;;;9.80;81.70;;;;;;4851819;29;20467;-80
2023/02/16 00:22:45;;;;;;;18.08;14.05;;;9.80;81.70;;;;;;4830118;29;20029;-81
2023/02/16 00:25:11;;;;;;;17.63;13.93;;;9.70;81.70;;;;;;4845068;29;20040;-81
2023/02/16 00:27:37;;;;;;;19.48;13.70;;;9.70;81.60;;;;;;4885275;29;20027;-79
2023/02/16 00:30:16;;;;;;;17.40;14.05;;;9.70;81.70;;;;;;4843978;29;20066;-81
2023/02/16 00:32:42;;;;;;;18.20;14.20;;;9.70;81.70;;;;;;4836813;29;20033;-80
2023/02/16 00:35:27;;;;;;;17.95;14.07;;;9.70;81.70;;;;;;4858013;29;20038;-79
2023/02/16 00:37:53;;;;;;;18.75;14.30;;;9.70;81.70;;;;;;4841096;29;20457;-80
2023/02/16 00:40:19;;;;;;;18.52;14.57;;;9.70;81.60;;;;;;4839720;29;20069;-79
2023/02/16 00:42:46;;;;;;;17.55;14.27;;;9.70;81.70;;;;;;4843103;29;20120;-81
2023/02/16 00:45:16;;;;;;;16.73;13.75;;;9.70;81.70;;;;;;4860352;29;20033;-81
2023/02/16 00:47:45;;;;;;;17.63;14.48;;;9.60;81.60;;;;;;4860509;29;20107;-80
2023/02/16 00:50:17;;;;;;;19.05;14.45;;;9.60;81.60;;;;;;4866544;29;20486;-81
2023/02/16 00:52:45;;;;;;;17.83;14.20;;;9.60;81.60;;;;;;4859729;29;20029;-81
2023/02/16 00:55:17;;;;;;;18.20;14.52;;;9.60;81.60;;;;;;4859125;29;20457;-80
2023/02/16 00:58:07;;;;;;;18.88;15.07;;;9.60;81.60;;;;;;4862689;29;20121;-81
2023/02/16 01:00:46;;;;;;;18.58;14.60;;;9.50;81.60;;;;;;4857144;29;20482;-80
2023/02/16 01:03:22;;;;;;;19.10;15.60;;;9.50;81.50;;;;;;4862030;29;20032;-80
2023/02/16 01:05:47;;;;;;;16.45;13.95;;;9.50;81.70;;;;;;4858467;29;20092;-80
2023/02/16 01:11:06;;;;;;;17.17;13.48;;;9.50;81.60;;;;;;4865771;29;20061;-80
2023/02/16 01:13:38;;;;;;;18.48;14.25;;;9.50;81.60;;;;;;4844046;29;20036;-81
2023/02/16 01:16:11;;;;;;;19.90;15.32;;;9.40;81.50;;;;;;4861770;29;20056;-79
2023/02/16 01:18:36;;;;;;;17.52;13.98;;;9.50;81.60;;;;;;4859652;29;20113;-79
2023/02/16 01:21:02;;;;;;;20.17;14.27;;;9.40;81.60;;;;;;4852863;29;20121;-79
2023/02/16 01:23:29;;;;;;;20.67;15.00;;;9.40;81.50;;;;;;4844826;29;20030;-80
2023/02/16 01:25:55;;;;;;;18.67;14.90;;;9.40;81.50;;;;;;4829263;29;20108;-79
2023/02/16 01:28:23;;;;;;;18.50;14.60;;;9.40;81.50;;;;;;4827876;29;20030;-79
2023/02/16 01:30:50;;;;;;;19.60;14.95;;;9.40;81.60;;;;;;4866276;29;20037;-79
2023/02/16 01:33:16;;;;;;;19.27;14.88;;;9.40;81.50;;;;;;4864134;29;20030;-79
2023/02/16 01:35:42;;;;;;;19.90;15.13;;;9.30;81.50;;;;;;4844454;29;20048;-79
2023/02/16 01:38:25;;;;;;;19.35;14.90;;;9.30;81.50;;;;;;4862065;29;20387;-79
2023/02/16 01:41:05;;;;;;;17.33;14.30;;;9.40;81.60;;;;;;4841116;29;20075;-78
2023/02/16 01:43:43;;;;;;;17.52;13.88;;;9.30;81.50;;;;;;4843409;29;20037;-80
2023/02/16 01:46:43;;;;;;;19.27;15.95;;;9.30;81.60;;;;;;4860023;29;20038;-80
2023/02/16 01:49:13;;;;;;;20.13;15.38;;;9.30;81.60;;;;;;4856819;29;20085;-80
2023/02/16 01:51:56;;;;;;;19.80;15.02;;;9.20;82.10;;;;;;4860057;29;20034;-79
2023/02/16 01:54:26;;;;;;;17.25;14.88;;;9.20;81.60;;;;;;4853825;29;20029;-80
2023/02/16 01:57:04;;;;;;;19.48;14.90;;;9.20;81.50;;;;;;4855237;29;20045;-80
2023/02/16 01:59:56;;;;;;;18.42;14.77;;;9.10;81.50;;;;;;4855850;29;20038;-80
2023/02/16 02:02:34;;;;;;;17.92;14.13;;;9.10;81.60;;;;;;4857385;29;20050;-79
2023/02/16 02:05:33;;;;;;;19.08;15.05;;;9.10;81.60;;;;;;4855725;29;20033;-79
2023/02/16 02:08:08;;;;;;;17.88;14.02;;;9.10;81.60;;;;;;4844792;29;20033;-81
2023/02/16 02:10:53;;;;;;;;;;;9.10;81.60;;;;;;4860260;29;20045;-79
2023/02/16 02:13:44;;;;;;;17.30;13.20;;;9.00;81.60;;;;;;4856021;29;20273;-79
2023/02/16 02:16:11;;;;;;;15.98;12.65;;;9.00;81.50;;;;;;4857902;29;20089;-80
2023/02/16 02:18:37;;;;;;;17.88;13.90;;;9.00;81.60;;;;;;4841299;29;20062;-80
2023/02/16 02:24:20;;;;;;;17.75;14.13;;;8.90;81.70;;;;;;4871493;29;20030;-83
2023/02/16 02:27:07;;;;;;;17.92;13.88;;;8.90;81.70;;;;;;4862315;29;20113;-80
2023/02/16 02:29:55;;;;;;;19.55;15.35;;;8.90;81.70;;;;;;4840927;29;20112;-80
2023/02/16 02:32:35;;;;;;;17.23;13.95;;;8.90;81.70;;;;;;4860798;29;20105;-82
2023/02/16 02:35:38;;;;;;;18.77;14.82;;;8.90;81.70;;;;;;4843110;29;20120;-80
2023/02/16 02:38:07;;;;;;;18.30;14.35;;;8.80;81.70;;;;;;4868397;29;20348;-80
2023/02/16 02:41:10;;;;;;;19.98;15.07;;;8.80;81.60;;;;;;4858567;29;20096;-80
2023/02/16 02:43:44;;;;;;;18.60;14.48;;;8.80;81.70;;;;;;4842347;29;20041;-81
2023/02/16 02:46:23;;;;;;;18.77;14.93;;;8.80;81.70;;;;;;4862318;29;20430;-80
2023/02/16 02:48:50;;;;;;;20.42;15.52;;;8.80;81.70;;;;;;4864934;29;20035;-80
2023/02/16 02:51:28;;;;;;;19.98;15.25;;;8.70;81.60;;;;;;4822213;29;20037;-79
2023/02/16 03:00:46;;;;;;;18.85;14.90;;;8.70;81.60;;;;;;4824957;29;20037;-82
2023/02/16 03:03:17;;;;;;;17.02;12.93;;;8.70;81.60;;;;;;4838396;29;20030;-80
2023/02/16 03:06:02;;;;;;;17.42;14.27;;;8.60;81.60;;;;;;4856198;29;20040;-80
2023/02/16 03:08:31;;;;;;;17.40;14.45;;;8.60;81.60;;;;;;4832274;29;20542;-81
2023/02/16 03:13:51;;;;;;;19.08;15.32;;;8.60;81.60;;;;;;4869227;29;20072;-81
2023/02/16 03:16:26;;;;;;;18.90;15.53;;;8.60;81.60;;;;;;4858240;29;20045;-82
2023/02/16 03:30:15;;;;;;;19.17;15.15;;;8.60;81.60;;;;;;4856140;29;20030;-79
2023/02/16 03:32:43;;;;;;;17.20;13.75;;;8.50;81.50;;;;;;4856870;29;20091;-81
2023/02/16 03:35:11;;;;;;;18.20;14.25;;;8.50;81.60;;;;;;4844112;29;20041;-80
2023/02/16 03:37:38;;;;;;;20.25;15.65;;;8.50;81.60;;;;;;4843869;29;20032;-80
2023/02/16 03:42:55;;;;;;;19.98;15.25;;;8.50;81.70;;;;;;4867679;29;20031;-80
2023/02/16 03:45:22;;;;;;;19.88;14.90;;;8.40;81.60;;;;;;4860395;29;20036;-79
2023/02/16 03:47:47;;;;;;;19.33;14.38;;;8.50;81.60;;;;;;4845010;29;20033;-81
2023/02/16 03:50:13;;;;;;;21.23;16.13;;;8.50;81.60;;;;;;4846291;29;20470;-79
2023/02/16 03:52:39;;;;;;;19.92;15.63;;;8.40;81.60;;;;;;4864159;29;20038;-80
2023/02/16 03:55:06;;;;;;;20.83;16.05;;;8.40;81.50;;;;;;4850619;29;20082;-81
2023/02/16 03:57:31;;;;;;;20.10;15.85;;;8.40;81.60;;;;;;4851692;29;20040;-79
2023/02/16 03:59:57;;;;;;;20.83;14.88;;;8.40;81.50;;;;;;4842380;29;20042;-79
2023/02/16 04:02:24;;;;;;;20.58;15.65;;;8.40;81.50;;;;;;4839493;29;20037;-80
2023/02/16 04:04:50;;;;;;;18.52;14.98;;;8.40;81.50;;;;;;4859169;29;20048;-80
2023/02/16 04:07:15;;;;;;;20.42;15.82;;;8.40;81.50;;;;;;4846047;29;20479;-79
2023/02/16 04:09:41;;;;;;;19.15;14.82;;;8.40;81.50;;;;;;4858577;29;20026;-80
2023/02/16 04:14:54;;;;;;;18.45;14.25;;;8.40;81.50;;;;;;4855969;29;20030;-79
2023/02/16 04:17:20;;;;;;;20.52;15.27;;;8.40;81.50;;;;;;4810531;29;20519;-79
2023/02/16 04:19:45;;;;;;;20.27;15.23;;;8.30;81.50;;;;;;4843769;29;20033;-80
2023/02/16 04:22:11;;;;;;;19.85;15.27;;;8.30;81.50;;;;;;4825980;29;20030;-80
2023/02/16 04:24:37;;;;;;;18.90;15.10;;;8.30;81.50;;;;;;4845078;29;20057;-80
2023/02/16 04:27:03;;;;;;;20.15;15.65;;;8.30;81.50;;;;;;4841739;29;20088;-81
2023/02/16 04:29:29;;;;;;;19.75;15.65;;;8.30;81.50;;;;;;4828632;29;20034;-82
2023/02/16 04:31:55;;;;;;;21.23;15.48;;;8.30;81.50;;;;;;4854646;29;20124;-80
2023/02/16 04:34:20;;;;;;;19.67;15.50;;;8.20;81.50;;;;;;4842199;29;20042;-81
2023/02/16 04:36:46;;;;;;;21.35;16.65;;;8.20;81.50;;;;;;4858828;29;20074;-80
2023/02/16 04:39:12;;;;;;;19.80;15.27;;;8.20;81.50;;;;;;4842439;29;20119;-80
2023/02/16 04:41:38;;;;;;;19.50;15.13;;;8.20;81.50;;;;;;4845583;29;20066;-81
2023/02/16 04:44:04;;;;;;;19.80;14.90;;;8.20;81.50;;;;;;4859890;29;20668;-79
2023/02/16 04:46:29;;;;;;;20.08;15.50;;;8.20;81.60;;;;;;4842371;29;20041;-80
2023/02/16 04:48:55;;;;;;;21.55;15.77;;;8.20;81.60;;;;;;4861937;29;20037;-79
2023/02/16 04:51:21;;;;;;;19.58;15.75;;;8.20;81.60;;;;;;4882084;29;20489;-80
2023/02/16 04:53:47;;;;;;;18.90;14.82;;;8.20;81.50;;;;;;4843985;29;20120;-80
2023/02/16 04:56:13;;;;;;;18.92;14.85;;;8.20;81.60;;;;;;4846422;29;20034;-80
2023/02/16 04:58:39;;;;;;;21.55;16.45;;;8.10;81.50;;;;;;4861050;29;20040;-80
2023/02/16 05:01:05;;;;;;;20.77;15.82;;;8.20;81.60;;;;;;4859303;29;20034;-79
2023/02/16 05:03:31;;;;;;;18.40;14.27;;;8.10;81.60;;;;;;4868089;29;20419;-79
2023/02/16 05:05:56;;;;;;;19.45;15.00;;;8.10;81.50;;;;;;4850708;29;20063;-80
2023/02/16 05:08:22;;;;;;;18.80;15.63;;;8.10;81.60;;;;;;4844991;29;20708;-79
2023/02/16 05:14:40;;;;;;;18.33;15.07;;;8.10;81.70;;;;;;4837689;29;20758;-80
2023/02/16 05:16:21;;;;;;;18.30;14.77;;;8.10;81.70;;;;;;4845540;29;20046;-80
2023/02/16 05:18:46;;;;;;;18.08;14.15;;;8.10;81.70;;;;;;4833940;29;20321;-80
2023/02/16 05:21:31;;;;;;;16.75;13.88;;;8.10;81.80;;;;;;4833260;29;20068;-84
2023/02/16 05:24:06;;;;;;;18.50;14.70;;;8.10;81.70;;;;;;4859913;29;20075;-80
2023/02/16 05:26:32;;;;;;;;;;;8.10;81.70;;;;;;4859062;29;20038;-80
2023/02/16 05:28:58;;;;;;;14.13;11.15;;;8.10;81.60;;;;;;4844215;29;19908;-82
2023/02/16 05:31:25;;;;;;;15.40;12.18;;;8.10;81.50;;;;;;4847229;29;20023;-80
2023/02/16 05:33:51;;;;;;;17.95;13.35;;;8.10;81.70;;;;;;4869099;29;20662;-81
2023/02/16 05:36:17;;;;;;;17.55;13.63;;;8.00;81.70;;;;;;4864745;29;20065;-80
2023/02/16 05:38:43;;;;;;;16.27;13.25;;;8.10;81.80;;;;;;4842812;29;20475;-79
2023/02/16 05:41:10;;;;;;;18.33;14.05;;;8.10;81.80;;;;;;4838987;29;20061;-79
2023/02/16 05:43:35;;;;;;;18.08;14.27;;;8.10;81.80;;;;;;4854873;29;20053;-80
2023/02/16 05:46:08;;;;;;;18.35;14.60;;;8.10;81.80;;;;;;4863495;29;20033;-79
2023/02/16 05:48:34;;;;;;;16.25;13.45;;;8.10;82.20;;;;;;4844715;29;20046;-82
2023/02/16 05:51:00;;;;;;;20.10;14.85;;;8.10;81.80;;;;;;4864103;29;20119;-80
2023/02/16 05:53:25;;;;;;;16.92;13.90;;;8.10;81.80;;;;;;4832300;29;20128;-80
2023/02/16 05:55:52;;;;;;;17.80;13.80;;;8.10;81.80;;;;;;4851790;29;20072;-81
2023/02/16 05:58:17;;;;;;;17.67;13.90;;;8.10;81.80;;;;;;4828094;29;20687;-80
2023/02/16 06:00:43;;;;;;;17.92;14.07;;;8.10;81.80;;;;;;4858550;29;20037;-80
2023/02/16 06:03:09;;;;;;;16.77;13.98;;;8.10;81.80;;;;;;4859541;29;20033;-80
2023/02/16 06:05:34;;;;;;;17.15;13.80;;;8.10;81.80;;;;;;4844469;29;20129;-82
2023/02/16 06:08:01;;;;;;;17.52;13.63;;;8.10;81.80;;;;;;4823211;29;20048;-81
2023/02/16 06:10:27;;;;;;;16.40;13.63;;;8.10;81.80;;;;;;4838483;29;20086;-80
2023/02/16 06:12:52;;;;;;;17.73;13.90;;;8.10;81.80;;;;;;4830776;29;20030;-80
2023/02/16 06:15:18;;;;;;;17.80;13.90;;;8.10;81.80;;;;;;4856093;29;20482;-78
2023/02/16 06:17:44;;;;;;;17.58;13.90;;;8.10;81.80;;;;;;4841054;29;20048;-82
2023/02/16 06:20:10;;;;;;;18.88;14.43;;;8.10;81.80;;;;;;4849459;29;20038;-82
2023/02/16 06:22:36;;;;;;;16.48;13.15;;;8.10;81.80;;;;;;4859038;29;20039;-79
2023/02/16 06:25:02;;;;;;;16.60;13.55;;;8.10;81.80;;;;;;4843292;29;20402;-79
2023/02/16 06:27:28;;;;;;;17.60;13.75;;;8.10;81.70;;;;;;4855633;29;20040;-80
2023/02/16 06:29:54;;;;;;;18.52;13.90;;;8.10;81.80;;;;;;4842190;29;20025;-79
2023/02/16 06:32:19;;;;;;;16.63;13.77;;;8.10;81.80;;;;;;4860541;29;20033;-78
2023/02/16 06:34:45;;;;;;;17.15;13.55;;;8.10;81.80;;;;;;4864681;29;20033;-79
2023/02/16 06:37:11;;;;;;;16.58;13.52;;;8.10;81.80;;;;;;4846608;29;20124;-80
2023/02/16 06:39:37;;;;;;;18.40;14.10;;;8.10;81.80;;;;;;4841137;29;20041;-78
2023/02/16 06:42:02;;;;;;;16.33;13.52;;;8.10;81.80;;;;;;4826653;29;20068;-79
2023/02/16 06:44:28;;;;;;;17.27;13.85;;;8.10;81.80;;;;;;4836981;29;20037;-78
2023/02/16 06:46:54;;;;;;;16.25;13.60;;;8.10;82.40;;;;;;4846738;29;20033;-79
2023/02/16 06:49:20;;;;;;;17.83;14.05;;;8.20;81.80;;;;;;4832016;29;20033;-79
2023/02/16 06:51:47;;;;;;;16.90;13.95;;;8.10;81.80;;;;;;4850406;29;20178;-79
2023/02/16 06:54:14;;;;;;;19.17;14.80;;;8.10;81.80;;;;;;4858382;29;20033;-81
2023/02/16 06:56:40;;;;;;;16.70;13.18;;;8.20;81.80;;;;;;4863862;29;20033;-80
2023/02/16 06:59:07;;;;;;;16.65;13.07;;;8.20;82.40;;;;;;4842872;29;20447;-79
2023/02/16 07:01:33;;;;;;;18.77;15.15;;;8.20;81.80;;;;;;4828304;29;20219;-78
2023/02/16 07:03:59;;;;;;;18.25;14.40;;;8.20;81.80;;;;;;4858512;29;20049;-78
2023/02/16 07:06:26;;;;;;;18.25;14.30;;;8.20;81.80;;;;;;4842437;29;20044;-79
2023/02/16 07:08:52;;;;;;;20.48;14.82;;;8.20;81.80;;;;;;4857447;29;20040;-79
2023/02/16 07:11:18;;;;;;;16.50;13.63;;;8.20;81.80;;;;;;4859965;29;20136;-82
2023/02/16 07:13:45;;;;;;;17.48;13.77;;;8.20;81.70;;;;;;4860523;29;20033;-79
2023/02/16 07:16:12;;;;;;;18.13;14.45;;;8.20;81.80;;;;;;4842436;29;20051;-78
2023/02/16 07:18:38;;;;;;;20.02;15.10;;;8.20;81.80;;;;;;4857408;29;20030;-78
2023/02/16 07:21:05;;;;;;;17.40;13.15;;;8.20;81.80;;;;;;4827237;29;20030;-80
2023/02/16 07:23:31;;;;;;;18.52;14.88;;;8.20;81.80;;;;;;4861301;29;20029;-79
2023/02/16 07:25:57;;;;;;;16.67;13.75;;;8.20;81.80;;;;;;4858693;29;20108;-79
2023/02/16 07:28:24;;;;;;;16.77;13.40;;;8.20;81.70;;;;;;4826302;29;20320;-80
2023/02/16 07:30:50;;;;;;;17.10;14.18;;;8.20;81.80;;;;;;4857886;29;20030;-79
2023/02/16 07:33:16;;;;;;;19.17;15.23;;;8.20;81.80;;;;;;4827224;29;20045;-79
2023/02/16 07:35:43;;;;;;;18.58;14.77;;;8.20;81.70;;;;;;4862707;29;20382;-80
2023/02/16 07:38:09;;;;;;;18.88;14.88;;;8.20;81.70;;;;;;4857390;29;20085;-81
2023/02/16 07:40:35;;;;;;;19.00;14.80;;;8.20;81.70;;;;;;4859113;29;20045;-78
2023/02/16 07:43:03;;;;;;;18.63;14.52;;;8.20;81.70;;;;;;4864108;29;20089;-79
2023/02/16 07:45:31;;;;;;;18.90;15.68;;;8.30;81.80;;;;;;4852632;29;20038;-79
2023/02/16 07:47:57;;;;;;;17.35;14.23;;;8.30;81.70;;;;;;4842814;29;20022;-79
2023/02/16 07:50:23;;;;;;;17.70;14.05;;;8.30;81.80;;;;;;4825755;29;20049;-81
2023/02/16 07:52:48;;;;;;;17.55;14.15;;;8.30;81.80;;;;;;4866885;29;20379;-78
2023/02/16 07:55:14;;;;;;;17.63;14.05;;;8.30;81.70;;;;;;4838818;29;20044;-80
2023/02/16 07:57:40;;;;;;;17.00;13.43;;;8.30;81.70;;;;;;4856597;29;20060;-78
2023/02/16 08:00:07;;;;;;;17.05;13.57;;;8.30;81.70;;;;;;4841072;29;20065;-79
2023/02/16 08:02:37;;;;;;;17.48;13.55;;;8.30;81.70;;;;;;4869791;29;20084;-79
2023/02/16 08:05:03;;;;;;;17.52;13.93;;;8.30;81.70;;;;;;4842741;29;20129;-80
2023/02/16 08:07:29;;;;;;;18.90;13.75;;;8.40;81.80;;;;;;4863475;29;20025;-79
2023/02/16 08:09:54;;;;;;;18.48;14.35;;;8.40;81.70;;;;;;4835223;29;20531;-80
2023/02/16 08:12:20;;;;;;;17.05;13.68;;;8.40;81.70;;;;;;4845216;29;21799;-79
2023/02/16 08:14:46;;;;;;;17.08;13.75;;;8.40;81.70;;;;;;4867777;29;20078;-78
2023/02/16 08:17:12;;;;;;;19.75;14.82;;;8.40;81.70;;;;;;4845383;29;20401;-79
2023/02/16 08:19:39;;;;;;;18.77;14.35;;;8.40;81.70;;;;;;4862069;29;20026;-79
2023/02/16 08:22:05;;;;;;;19.63;15.13;;;8.40;81.70;;;;;;4838590;29;20033;-79
2023/02/16 08:24:32;;;;;;;20.52;15.15;;;8.40;81.70;;;;;;4863662;29;20130;-80
2023/02/16 08:26:59;;;;;;;18.30;14.65;;;8.40;81.70;;;;;;4839820;29;20490;-80
2023/02/16 08:29:25;;;;;;;18.92;14.57;;;8.50;81.80;;;;;;4846304;29;20033;-80
2023/02/16 08:31:54;;;;;;;17.42;14.63;;;8.40;81.70;;;;;;4860699;29;20060;-79
2023/02/16 08:34:20;;;;;;;18.52;14.75;;;8.40;81.80;;;;;;4860391;29;20067;-79
2023/02/16 08:36:51;;;;;;;18.70;13.90;;;8.50;81.80;;;;;;4843660;29;20128;-78
2023/02/16 08:39:19;;;;;;;17.17;14.35;;;8.50;81.80;;;;;;4861776;29;20398;-78
2023/02/16 08:41:47;;;;;;;17.95;14.65;;;8.50;81.80;;;;;;4866496;29;20060;-81
2023/02/16 08:44:14;;;;;;;16.98;13.68;;;8.50;81.80;;;;;;4860337;29;20062;-78
2023/02/16 08:46:42;;;;;;;18.52;14.80;;;8.50;81.80;;;;;;4844453;29;20479;-79
2023/02/16 08:49:10;;;;;;;19.88;14.82;;;8.50;81.80;;;;;;4850539;29;20128;-78
2023/02/16 08:51:39;;;;;;;19.05;14.85;;;8.50;81.80;;;;;;4861566;29;20030;-79
2023/02/16 08:54:10;;;;;;;17.20;13.75;;;8.50;81.80;;;;;;4844236;29;20037;-79
2023/02/16 08:56:36;;;;;;;18.92;15.13;;;8.60;81.80;;;;;;4832663;29;20076;-78
2023/02/16 08:59:02;;;;;;;18.27;14.75;;;8.60;81.80;;;;;;4855923;29;20037;-78
2023/02/16 09:01:29;;;;;;;20.58;14.70;;;8.60;81.70;;;;;;4858954;29;20041;-78
2023/02/16 09:03:55;;;;;;;18.35;13.55;;;8.60;81.70;;;;;;4858507;29;20029;-79
2023/02/16 09:06:21;;;;;;;19.45;15.60;;;8.70;81.80;;;;;;4843393;29;20402;-81
2023/02/16 09:08:55;;;;;;;19.00;15.07;;;8.60;81.70;;;;;;4842145;29;20523;-80
2023/02/16 09:11:22;;;;;;;18.55;14.35;;;8.70;81.80;;;;;;4857570;29;20116;-78
2023/02/16 09:13:49;;;;;;;17.80;14.50;;;8.70;81.70;;;;;;4858929;29;20078;-79
2023/02/16 09:16:22;;;;;;;17.42;13.98;;;8.70;81.70;;;;;;4866418;29;20045;-79
2023/02/16 09:18:49;;;;;;;18.40;14.90;;;8.70;81.70;;;;;;4839200;29;20116;-79
2023/02/16 09:21:24;;;;;;;18.63;14.55;;;8.80;81.70;;;;;;4874411;29;20079;-80
2023/02/16 09:23:52;;;;;;;17.05;13.57;;;8.80;81.70;;;;;;4857652;29;20033;-80
2023/02/16 09:26:20;;;;;;;16.83;13.35;;;8.80;81.70;;;;;;4858866;29;20505;-78
2023/02/16 09:28:47;;;;;;;18.05;14.80;;;8.80;81.70;;;;;;4858022;29;20032;-80
2023/02/16 09:31:25;;;;;;;19.15;15.25;;;8.80;81.70;;;;;;4861667;29;20053;-80
2023/02/16 09:33:52;;;;;;;18.50;14.63;;;8.80;81.70;;;;;;4846927;29;20058;-78
2023/02/16 09:36:18;;;;;;;18.40;15.18;;;8.80;81.70;;;;;;4829815;29;20038;-79
2023/02/16 09:38:46;;;;;;;19.85;14.95;;;8.90;81.70;;;;;;4861681;29;20044;-79
2023/02/16 09:41:35;;;;;;;19.02;14.48;;;8.90;81.70;;;;;;4843805;29;20029;-81
2023/02/16 09:44:29;;;;;;;18.70;14.55;;;8.90;81.70;;;;;;4858040;29;20378;-79
2023/02/16 09:46:58;;;;;;;17.52;14.18;;;8.90;81.60;;;;;;4860116;29;20041;-80
2023/02/16 09:49:50;;;;;;;18.60;14.93;;;8.90;81.60;;;;;;4865768;29;20025;-80
2023/02/16 09:52:34;;;;;;;19.02;14.13;;;8.90;81.70;;;;;;4842102;29;20064;-79
2023/02/16 09:55:04;;;;;;;17.17;14.03;;;8.90;81.60;;;;;;4848274;29;20361;-78
2023/02/16 09:57:54;;;;;;;17.95;14.38;;;8.90;81.50;;;;;;4867405;29;20045;-80
2023/02/16 10:00:32;;;;;;;17.35;13.93;;;9.00;81.60;;;;;;4852391;29;20482;-79
2023/02/16 10:03:29;;;;;;;17.48;13.57;;;9.00;81.60;;;;;;4858396;29;20169;-79
2023/02/16 10:06:13;;;;;;;17.15;13.80;;;9.00;81.60;;;;;;4868515;29;20090;-79
2023/02/16 10:08:44;;;;;;;17.83;13.52;;;9.00;81.60;;;;;;4857949;29;20030;-79
2023/02/16 10:14:13;;;;;;;18.92;14.10;;;9.00;81.50;;;;;;4860574;29;20193;-79
2023/02/16 10:17:00;;;;;;;19.77;15.13;;;9.10;81.60;;;;;;4858008;29;20407;-78
2023/02/16 10:19:32;;;;;;;18.60;14.10;;;9.10;81.60;;;;;;4870438;29;20081;-79
2023/02/16 10:22:04;;;;;;;18.08;13.98;;;9.10;81.60;;;;;;4836818;29;20025;-79
2023/02/16 10:24:43;;;;;;;19.17;14.68;;;9.10;81.60;;;;;;4859734;29;20021;-81
2023/02/16 10:27:15;;;;;;;17.98;14.95;;;9.10;81.60;;;;;;4875333;29;20160;-79
2023/02/16 10:29:41;;;;;;;18.73;14.02;;;9.20;81.60;;;;;;4862237;29;20041;-79
2023/02/16 10:32:25;;;;;;;17.80;14.50;;;9.20;81.60;;;;;;4858209;29;20090;-80
2023/02/16 10:35:20;;;;;;;19.87;15.23;;;9.20;81.60;;;;;;4864452;29;20092;-79
2023/02/16 10:38:04;;;;;;;19.20;14.95;;;9.20;81.60;;;;;;4844416;29;20297;-80
2023/02/16 10:40:55;;;;;;;17.95;14.45;;;9.30;81.60;;;;;;4857287;29;20041;-79
2023/02/16 10:43:36;;;;;;;17.02;14.02;;;9.20;81.60;;;;;;4860729;29;20061;-79
2023/02/16 10:46:03;;;;;;;15.88;13.13;;;9.30;81.50;;;;;;4842742;29;20477;-78
2023/02/16 10:48:30;;;;;;;18.42;14.65;;;9.30;81.60;;;;;;4852227;29;20026;-79
2023/02/16 10:51:00;;;;;;;17.58;14.95;;;9.30;81.50;;;;;;4856540;29;20029;-77
2023/02/16 10:53:49;;;;;;;17.67;14.95;;;9.30;81.60;;;;;;4846188;29;20036;-80
2023/02/16 10:56:23;;;;;;;19.15;14.73;;;9.40;81.60;;;;;;4857193;29;20037;-79
2023/02/16 10:58:50;;;;;;;18.55;14.32;;;9.30;81.50;;;;;;4843326;29;20488;-80
2023/02/16 11:01:29;;;;;;;18.13;15.05;;;9.30;81.40;;;;;;4843880;29;20129;-79
2023/02/16 11:03:57;;;;;;;17.13;13.70;;;9.40;81.50;;;;;;4857780;29;20029;-78
2023/02/16 11:06:25;;;;;;;18.90;15.10;;;9.30;81.40;;;;;;4845653;29;20062;-79
2023/02/16 11:08:56;;;;;;;18.40;14.77;;;9.40;81.50;;;;;;4845338;29;20551;-81
2023/02/16 11:11:39;;;;;;;19.65;15.20;;;9.40;81.50;;;;;;4854191;29;20045;-80
2023/02/16 11:14:24;;;;;;;19.25;14.95;;;9.40;81.60;;;;;;4854122;29;20038;-80
2023/02/16 11:17:11;;;;;;;18.58;14.32;;;9.40;82.20;;;;;;4862075;29;20565;-80
2023/02/16 11:19:39;;;;;;;16.75;13.60;;;9.40;81.50;;;;;;4857330;29;20041;-81
2023/02/16 11:22:06;;;;;;;17.80;14.75;;;9.40;81.50;;;;;;4858927;29;20030;-80
2023/02/16 11:24:36;;;;;;;17.92;14.75;;;9.50;81.50;;;;;;4862684;29;20101;-79
2023/02/16 11:27:20;;;;;;;18.95;14.82;;;9.50;81.50;;;;;;4858309;29;20041;-79
2023/02/16 11:29:46;;;;;;;19.05;15.90;;;9.50;81.60;;;;;;4840242;29;20025;-82
2023/02/16 11:32:15;;;;;;;17.98;14.45;;;9.50;81.50;;;;;;4836961;29;20039;-80
2023/02/16 11:34:43;;;;;;;17.98;14.40;;;9.50;81.50;;;;;;4853881;29;20025;-79
2023/02/16 11:37:24;;;;;;;16.90;14.70;;;9.50;81.50;;;;;;4865316;29;20033;-79
2023/02/16 11:40:23;;;;;;;17.48;14.35;;;9.60;81.60;;;;;;4840260;29;20463;-79
2023/02/16 11:42:54;;;;;;;18.05;14.68;;;9.60;81.60;;;;;;4856805;29;20045;-79
2023/02/16 11:45:26;;;;;;;17.67;14.65;;;9.60;81.50;;;;;;4859183;29;20033;-80
2023/02/16 11:48:07;;;;;;;18.95;14.45;;;9.60;81.50;;;;;;4843667;29;20025;-80
2023/02/16 11:50:37;;;;;;;17.00;13.68;;;9.60;81.60;;;;;;4861949;29;20030;-78
2023/02/16 11:53:09;;;;;;;16.20;13.60;;;9.60;81.50;;;;;;4841466;29;20168;-80
2023/02/16 11:55:37;;;;;;;20.77;15.38;;;9.60;81.50;;;;;;4840995;29;20136;-79
2023/02/16 11:58:24;;;;;;;18.88;14.68;;;9.60;81.50;;;;;;4849156;29;20493;-80
2023/02/16 12:01:11;;;;;;;17.50;13.93;;;9.60;81.60;;;;;;4855396;29;20045;-80
2023/02/16 12:04:34;;;;;;;18.33;14.32;;;9.60;81.50;;;;;;4857980;29;20475;-83
2023/02/16 12:07:33;;;;;;;16.55;13.50;;;9.60;81.50;;;;;;4837726;29;20070;-79
2023/02/16 12:10:11;;;;;;;17.77;13.68;;;9.70;81.50;;;;;;4822768;29;20527;-79
2023/02/16 12:12:46;;;;;;;16.13;13.27;;;9.70;81.50;;;;;;4857603;29;20236;-80
2023/02/16 12:15:23;;;;;;;17.88;13.80;;;9.70;81.60;;;;;;4862926;29;20038;-80
2023/02/16 12:18:03;;;;;;;15.77;12.88;;;9.70;81.60;;;;;;4858751;29;20037;-79
2023/02/16 12:20:50;;;;;;;16.20;13.38;;;9.70;81.70;;;;;;4854774;29;20430;-80
2023/02/16 12:23:51;;;;;;;16.45;13.63;;;9.70;81.70;;;;;;4836455;29;20033;-80
2023/02/16 12:26:25;;;;;;;18.00;14.05;;;9.70;81.70;;;;;;4821850;29;20065;-81
2023/02/16 12:29:10;;;;;;;16.73;13.23;;;9.70;81.50;;;;;;4841939;29;20049;-79
2023/02/16 12:31:46;;;;;;;17.10;13.82;;;9.80;81.60;;;;;;4853622;29;20086;-79
2023/02/16 12:34:18;;;;;;;16.88;14.18;;;9.80;81.50;;;;;;4838043;29;20052;-79
2023/02/16 12:36:53;;;;;;;16.92;13.77;;;9.80;81.50;;;;;;4862422;29;20098;-78
2023/02/16 12:39:44;;;;;;;18.80;14.90;;;9.90;81.50;;;;;;4862872;29;20478;-79
2023/02/16 12:42:31;;;;;;;17.38;14.20;;;9.90;81.50;;;;;;4858947;29;20045;-79
2023/02/16 12:45:04;;;;;;;17.63;14.70;;;9.90;81.50;;;;;;4851027;29;20040;-80
2023/02/16 12:47:43;;;;;;;18.00;14.38;;;9.90;81.50;;;;;;4870424;29;20044;-79
2023/02/16 12:50:26;;;;;;;17.92;15.00;;;9.90;81.50;;;;;;4857123;29;20025;-79
2023/02/16 12:53:00;;;;;;;15.50;13.43;;;10.00;81.50;;;;;;4858415;29;20029;-78
2023/02/16 12:55:37;;;;;;;19.67;15.25;;;10.00;81.40;;;;;;4860398;29;20382;-80
2023/02/16 12:58:22;;;;;;;17.17;14.27;;;10.00;81.40;;;;;;4855259;29;20029;-79
2023/02/16 13:00:51;;;;;;;17.23;14.48;;;10.10;81.50;;;;;;4860420;29;20034;-79
2023/02/16 13:03:43;;;;;;;18.33;14.25;;;10.10;81.40;;;;;;4860097;29;20109;-79
2023/02/16 13:06:36;;;;;;;17.73;14.32;;;10.10;81.40;;;;;;4863801;29;20497;-78
2023/02/16 13:09:20;;;;;;;15.57;13.70;;;10.20;81.40;;;;;;4853960;29;20644;-79
2023/02/16 13:11:57;;;;;;;15.23;12.93;;;10.20;81.30;;;;;;4847033;29;20025;-79
2023/02/16 13:14:28;;;;;;;17.08;13.32;;;10.20;81.30;;;;;;4860851;29;20073;-79
2023/02/16 13:17:16;;;;;;;17.90;14.80;;;10.20;81.30;;;;;;4865641;29;20041;-80
2023/02/16 13:19:43;;;;;;;17.42;14.38;;;10.30;81.40;;;;;;4855185;29;20550;-78
2023/02/16 13:22:21;;;;;;;17.75;14.70;;;10.30;81.30;;;;;;4867648;29;20025;-80
2023/02/16 13:25:13;;;;;;;17.50;14.35;;;10.30;81.30;;;;;;4868051;29;20034;-79
2023/02/16 13:28:22;;;;;;;17.05;13.55;;;10.40;81.40;;;;;;4849329;29;20029;-79
2023/02/16 13:31:22;;;;;;;18.45;14.07;;;10.40;81.40;;;;;;4872471;29;20076;-78
2023/02/16 13:34:06;;;;;;;17.23;13.77;;;10.40;81.30;;;;;;4859531;29;20126;-80
2023/02/16 13:36:47;;;;;;;16.42;12.95;;;10.50;81.20;;;;;;4860907;29;20170;-78
2023/02/16 13:39:19;;;;;;;16.73;13.88;;;10.50;81.20;;;;;;4860373;29;20037;-81
2023/02/16 13:42:13;;;;;;;18.75;14.38;;;10.50;81.20;;;;;;4860372;29;20132;-80